Forbes, Minnesota
Current Conditions -  °F | °C
As of 12:31 PM on Wednesday 26 Nov 2014 (Local Time) from KEVM Reporting Station
Scattered Clouds Scattered Clouds  
Wind Chill: 11°   Ceiling: Unl
Heat Index: 18°   Visibility: 10mi
Dew Point:   Wind: 5mph
Humidity: 68%   Direction: 340°NNW
Pressure: 30.21"   Gusts: NA
Location:  47.37°N, 92.6°W
Report Text: KEVM 261831Z AUTO 34004KT 10SM SCT008 SCT012 SCT023 M08/M13 A3021 RMK AO2
Loading
Personal Weather Stations






























Interactive Weather Map New forecast layout! Learn more

10-Day Weather Forecast

Advertisements
Track Severe Weather on mobile